Ignacio, Colorado
Current Conditions -  °F | °C
As of 5:53 PM on Tuesday 21 Oct 2014 (Local Time) from KDRO Reporting Station
Overcast Overcast  
Wind Chill: 55°   Ceiling: 10000
Heat Index: 55°   Visibility: 10mi
Dew Point: 47°   Wind: 0mph
Humidity: 74%   Direction: NA
Pressure: 30.09"   Gusts: NA
Location:  37.12°N, 107.63°W
Report Text: KDRO 212353Z AUTO 00000KT 10SM OVC100 13/08 A3009 RMK AO2 SLP145 T01280083 10167 20117 56007 PWINO
Loading
Personal Weather Stations






























Interactive Weather Map
Tropical Storm Tracking
New forecast layout! Learn more

10-Day Weather Forecast

Advertisements
Track Severe Weather on mobile